Time;durP1;ratioP1;P1;durP2;ratioP2;P2;SDS_P1;SDS_P2;PMS_P1;PMS_P2;Temp;Humidity;BMP_temperature;BMP_pressure;BME280_temperature;BME280_humidity;BME280_pressure;Samples;Min_cycle;Max_cycle;Signal;HPM_P1;HPM_P2
2022/10/16 00:01:08;;;;;;;;;0.00;0.00;;;;;18.12;100.00;100824.88;5039483;28;45415;-74
2022/10/16 00:03:34;;;;;;;;;1.00;1.00;;;;;18.11;100.00;100847.16;5038603;28;46521;-74
2022/10/16 00:06:00;;;;;;;;;0.67;0.00;;;;;18.06;100.00;100838.34;5038566;28;45628;-74
2022/10/16 00:08:26;;;;;;;;;2.00;1.00;;;;;18.02;100.00;100832.19;5040433;28;45376;-75
2022/10/16 00:10:51;;;;;;;;;3.00;1.00;;;;;17.99;100.00;100834.03;5039353;28;45404;-75
2022/10/16 00:13:17;;;;;;;;;0.67;0.67;;;;;17.98;100.00;100840.28;5038152;28;69651;-75
2022/10/16 00:15:43;;;;;;;;;1.00;1.00;;;;;17.96;100.00;100843.00;5038348;28;45323;-74
2022/10/16 00:18:10;;;;;;;;;1.00;1.00;;;;;17.98;100.00;100864.31;5038568;28;45467;-75
2022/10/16 00:20:36;;;;;;;;;1.00;1.00;;;;;18.00;100.00;100867.84;5039021;28;45317;-75
2022/10/16 00:23:03;;;;;;;;;0.00;0.00;;;;;18.03;100.00;100871.34;5038712;28;46269;-75
2022/10/16 00:25:28;;;;;;;;;0.00;0.00;;;;;18.05;100.00;100860.63;5038138;28;45444;-75
2022/10/16 00:27:54;;;;;;;;;0.67;0.67;;;;;18.06;100.00;100849.03;5041137;28;45204;-75
2022/10/16 00:30:19;;;;;;;;;1.33;0.67;;;;;18.09;100.00;100856.09;5038383;28;45174;-74
2022/10/16 00:32:44;;;;;;;;;1.00;1.00;;;;;18.08;100.00;100852.56;5036239;28;73202;-75
2022/10/16 00:35:10;;;;;;;;;0.33;0.33;;;;;18.08;100.00;100857.91;5037999;28;65494;-75
2022/10/16 00:37:35;;;;;;;;;0.00;0.00;;;;;18.06;100.00;100862.41;5038762;28;45211;-74
2022/10/16 00:40:00;;;;;;;;;0.00;0.00;;;;;18.09;100.00;100870.34;5038404;28;58489;-75
2022/10/16 00:42:26;;;;;;;;;1.00;0.00;;;;;18.09;100.00;100870.34;5037537;28;64504;-74
2022/10/16 00:44:53;;;;;;;;;0.00;0.00;;;;;18.09;100.00;100872.13;5038286;28;45426;-74
2022/10/16 00:47:32;;;;;;;;;1.00;1.00;;;;;18.08;100.00;100857.91;5038319;28;45351;-74
2022/10/16 00:50:15;;;;;;;;;2.00;1.00;;;;;18.09;100.00;100864.13;5039092;28;45458;-75
2022/10/16 00:52:44;;;;;;;;;0.67;0.00;;;;;18.07;100.00;100874.84;5020097;28;47865;-74
2022/10/16 00:55:10;;;;;;;;;0.67;0.67;;;;;18.07;100.00;100874.84;5038361;28;45177;-75
2022/10/16 00:57:36;;;;;;;;;1.33;0.00;;;;;18.09;100.00;100886.38;5038243;28;45431;-74
2022/10/16 01:00:03;;;;;;;;;2.00;0.00;;;;;18.11;100.00;100892.59;5038762;28;45317;-75
2022/10/16 01:02:29;;;;;;;;;1.33;0.00;;;;;18.08;100.00;100881.94;5037229;28;46736;-74
2022/10/16 01:04:54;;;;;;;;;1.00;0.00;;;;;18.08;100.00;100887.28;5037670;28;61864;-76
2022/10/16 01:07:29;;;;;;;;;0.00;0.00;;;;;18.06;100.00;100890.00;5037961;28;45341;-74
2022/10/16 01:10:07;;;;;;;;;0.00;0.00;;;;;18.06;100.00;100890.00;5038187;28;45353;-75
2022/10/16 01:12:41;;;;;;;;;2.00;0.00;;;;;18.06;100.00;100895.34;5019588;28;47591;-75
2022/10/16 01:15:25;;;;;;;;;1.00;1.00;;;;;18.07;100.00;100893.56;5037750;28;45446;-74
2022/10/16 01:18:01;;;;;;;;;0.00;0.00;;;;;18.09;100.00;100901.53;5037961;28;45506;-75
2022/10/16 01:20:50;;;;;;;;;0.00;0.00;;;;;18.09;100.00;100907.75;5037316;28;45432;-73
2022/10/16 01:23:31;;;;;;;;;1.00;0.00;;;;;18.09;100.00;100905.06;5007231;28;47663;-75
2022/10/16 01:26:00;;;;;;;;;0.00;0.00;;;;;18.11;100.00;100907.72;5031698;28;45269;-74
2022/10/16 01:28:42;;;;;;;;;0.33;0.00;;;;;18.10;100.00;100897.94;5037556;28;45229;-75
2022/10/16 01:31:09;;;;;;;;;0.00;0.00;;;;;18.08;100.00;100895.31;5020388;28;45503;-75
2022/10/16 01:33:46;;;;;;;;;1.67;1.00;;;;;18.08;100.00;100895.31;5018443;28;64822;-74
2022/10/16 01:36:28;;;;;;;;;0.00;0.00;;;;;18.09;100.00;100901.53;5016421;28;45336;-74
2022/10/16 01:38:56;;;;;;;;;0.67;0.67;;;;;18.09;100.00;100901.53;5034137;28;45327;-74
2022/10/16 01:41:27;;;;;;;;;0.00;0.00;;;;;18.08;100.00;100899.78;5019964;28;45517;-74
2022/10/16 01:44:05;;;;;;;;;0.33;0.00;;;;;18.06;100.00;100898.00;5019622;28;47578;-74
2022/10/16 01:46:32;;;;;;;;;2.00;0.00;;;;;18.06;100.00;100895.34;5018928;28;45463;-74
2022/10/16 01:49:00;;;;;;;;;0.00;0.00;;;;;18.08;100.00;100889.09;5019922;28;45505;-75
2022/10/16 01:51:26;;;;;;;;;0.00;0.00;;;;;18.05;100.00;100890.88;5037432;28;45602;-75
2022/10/16 01:53:55;;;;;;;;;0.00;0.00;;;;;18.04;100.00;100891.81;5018955;28;66380;-74
2022/10/16 01:56:22;;;;;;;;;1.00;1.00;;;;;18.04;100.00;100882.91;5019077;28;45435;-75
2022/10/16 01:59:04;;;;;;;;;0.00;0.00;;;;;18.03;100.00;100887.38;5019403;28;45491;-75
2022/10/16 02:01:31;;;;;;;;;1.00;1.00;;;;;18.05;100.00;100887.34;5037513;28;45443;-74
2022/10/16 02:04:02;;;;;;;;;0.00;0.00;;;;;18.06;100.00;100897.13;5017669;28;46806;-75
2022/10/16 02:06:29;;;;;;;;;0.33;0.00;;;;;18.06;100.00;100891.78;5037097;28;45488;-74
2022/10/16 02:08:54;;;;;;;;;0.00;0.00;;;;;18.04;100.00;100894.47;5037353;28;45279;-75
2022/10/16 02:11:20;;;;;;;;;0.00;0.00;;;;;18.03;100.00;100889.16;5019323;28;45503;-75
2022/10/16 02:13:49;;;;;;;;;0.00;0.00;;;;;18.01;100.00;100891.00;5035843;28;67913;-74
2022/10/16 02:16:14;;;;;;;;;0.00;0.00;;;;;18.03;100.00;100898.06;5036929;28;45418;-75
2022/10/16 02:18:41;;;;;;;;;0.00;0.00;;;;;18.04;100.00;100901.59;5037462;28;45276;-76
2022/10/16 02:21:15;;;;;;;;;0.00;0.00;;;;;18.06;100.00;100908.69;5020059;28;45666;-74
2022/10/16 02:23:40;;;;;;;;;1.67;0.00;;;;;18.05;100.00;100911.38;5035305;28;46481;-76
2022/10/16 02:26:09;;;;;;;;;0.00;0.00;;;;;18.05;100.00;100903.38;5036273;28;45471;-76
2022/10/16 02:28:55;;;;;;;;;0.00;0.00;;;;;18.07;100.00;100901.56;5019144;28;45477;-74
2022/10/16 02:31:28;;;;;;;;;0.00;0.00;;;;;18.07;100.00;100888.22;5037165;28;45714;-74
2022/10/16 02:33:56;;;;;;;;;0.00;0.00;;;;;18.06;100.00;100891.78;5031898;28;47363;-74
2022/10/16 02:36:21;;;;;;;;;0.00;0.00;;;;;18.06;100.00;100889.13;5036788;28;45347;-74
2022/10/16 02:38:47;;;;;;;;;1.67;0.00;;;;;18.07;100.00;100896.22;5036613;28;54312;-74
2022/10/16 02:41:14;;;;;;;;;0.00;0.00;;;;;18.05;100.00;100898.03;5018022;28;58745;-75
2022/10/16 02:43:39;;;;;;;;;0.00;0.00;;;;;18.03;100.00;100895.38;5018212;28;47412;-74
2022/10/16 02:46:05;;;;;;;;;0.00;0.00;;;;;18.04;100.00;100904.28;5036127;28;45356;-74
2022/10/16 02:48:30;;;;;;;;;0.00;0.00;;;;;18.05;100.00;100911.38;5036763;28;45321;-74
2022/10/16 02:50:56;;;;;;;;;0.00;0.00;;;;;18.03;100.00;100913.22;5036734;28;45426;-74
2022/10/16 02:53:22;;;;;;;;;0.67;0.00;;;;;18.04;100.00;100921.19;5035844;28;47309;-74
2022/10/16 02:55:47;;;;;;;;;0.00;0.00;;;;;18.02;100.00;100922.16;5036616;28;45443;-75
2022/10/16 02:58:13;;;;;;;;;0.00;0.00;;;;;18.00;100.00;100926.63;5035533;28;59892;-74
2022/10/16 03:00:38;;;;;;;;;0.00;0.00;;;;;18.00;100.00;100923.94;5036507;28;45444;-75
2022/10/16 03:03:03;;;;;;;;;0.00;0.00;;;;;18.00;100.00;100932.88;5035902;28;65244;-74
2022/10/16 03:05:29;;;;;;;;;0.00;0.00;;;;;18.00;100.00;100939.97;5035493;28;64119;-75
2022/10/16 03:07:54;;;;;;;;;0.00;0.00;;;;;18.01;100.00;100923.06;5036079;28;45294;-74
2022/10/16 03:10:19;;;;;;;;;0.00;0.00;;;;;17.99;100.00;100930.19;5036367;28;45254;-75
2022/10/16 03:12:45;;;;;;;;;0.00;0.00;;;;;18.01;100.00;100931.06;5036205;28;51607;-73
2022/10/16 03:15:10;;;;;;;;;0.00;0.00;;;;;18.01;100.00;100923.06;5034911;28;67820;-73
2022/10/16 03:17:35;;;;;;;;;0.00;0.00;;;;;18.00;100.00;100930.19;5035877;28;45689;-74
2022/10/16 03:20:01;;;;;;;;;0.00;0.00;;;;;17.99;100.00;100919.50;5036160;28;45408;-75
2022/10/16 03:22:26;;;;;;;;;0.00;0.00;;;;;18.00;100.00;100918.59;5035320;28;59062;-75
2022/10/16 03:24:51;;;;;;;;;0.00;0.00;;;;;17.99;100.00;100920.38;5034477;28;65487;-75
2022/10/16 03:27:17;;;;;;;;;1.00;0.00;;;;;18.00;100.00;100907.91;5040691;28;45518;-76
2022/10/16 03:29:42;;;;;;;;;0.00;0.00;;;;;17.98;100.00;100905.28;5034397;28;57574;-75
2022/10/16 03:32:07;;;;;;;;;0.00;0.00;;;;;17.98;100.00;100902.59;5034323;28;64188;-74
2022/10/16 03:34:33;;;;;;;;;0.00;0.00;;;;;17.95;100.00;100916.03;5035762;28;45442;-75
2022/10/16 03:36:58;;;;;;;;;0.00;0.00;;;;;17.96;100.00;100919.59;5034372;28;60448;-74
2022/10/16 03:39:23;;;;;;;;;0.33;0.00;;;;;17.96;100.00;100931.16;5034833;28;45430;-75
2022/10/16 03:41:49;;;;;;;;;0.33;0.00;;;;;17.96;100.00;100917.78;5037398;28;46287;-75
2022/10/16 03:44:14;;;;;;;;;0.00;0.00;;;;;17.95;100.00;100905.34;5034720;28;66236;-74
2022/10/16 03:46:40;;;;;;;;;0.00;0.00;;;;;17.95;100.00;100925.81;5035077;28;53994;-74
2022/10/16 03:49:05;;;;;;;;;0.00;0.00;;;;;17.95;100.00;100928.50;5035892;28;45660;-75
2022/10/16 03:51:30;;;;;;;;;0.00;0.00;;;;;17.96;100.00;100920.47;5035241;28;46308;-74
2022/10/16 03:53:56;;;;;;;;;0.00;0.00;;;;;17.96;100.00;100922.25;5035280;28;61501;-74
2022/10/16 03:56:21;;;;;;;;;0.00;0.00;;;;;17.94;100.00;100935.63;5034956;28;58828;-73
2022/10/16 03:58:46;;;;;;;;;0.00;0.00;;;;;17.94;100.00;100927.59;5035025;28;60155;-75
2022/10/16 04:01:12;;;;;;;;;0.00;0.00;;;;;17.93;100.00;100928.53;5036986;28;65223;-75
2022/10/16 04:03:37;;;;;;;;;0.00;0.00;;;;;17.93;100.00;100916.97;5035123;28;45208;-75
2022/10/16 04:06:02;;;;;;;;;0.00;0.00;;;;;17.90;100.00;100922.38;5035805;28;45427;-75
2022/10/16 04:08:28;;;;;;;;;0.00;0.00;;;;;17.89;100.00;100926.81;5035901;28;45447;-75
2022/10/16 04:10:53;;;;;;;;;0.00;0.00;;;;;17.88;100.00;100930.41;5035105;28;46389;-74
2022/10/16 04:13:18;;;;;;;;;0.00;0.00;;;;;17.88;100.00;100935.72;5034707;28;66079;-74
2022/10/16 04:15:45;;;;;;;;;0.00;0.00;;;;;17.89;100.00;100941.97;5035362;28;45542;-74
2022/10/16 04:18:11;;;;;;;;;0.00;0.00;;;;;17.89;100.00;100936.63;5032742;28;45438;-74
2022/10/16 04:20:36;;;;;;;;;0.00;0.00;;;;;17.86;100.00;100944.69;5034182;28;53118;-74
2022/10/16 04:23:02;;;;;;;;;0.00;0.00;;;;;17.83;100.00;100945.63;5034382;28;64985;-75
2022/10/16 04:25:27;;;;;;;;;0.00;0.00;;;;;17.83;100.00;100942.94;5035469;28;45544;-74
2022/10/16 04:27:53;;;;;;;;;1.00;1.00;;;;;17.84;100.00;100941.16;5039550;28;45387;-74
2022/10/16 04:30:19;;;;;;;;;0.00;0.00;;;;;17.84;100.00;100954.50;5039312;28;47807;-74
2022/10/16 04:32:51;;;;;;;;;0.33;0.00;;;;;17.83;100.00;100958.97;5028636;28;45238;-74
2022/10/16 04:35:17;;;;;;;;;0.00;0.00;;;;;17.84;100.00;100978.56;5020752;28;45202;-74
2022/10/16 04:37:43;;;;;;;;;0.00;0.00;;;;;17.83;100.00;100966.09;5039585;28;45410;-75
2022/10/16 04:40:08;;;;;;;;;0.00;0.00;;;;;17.81;100.00;100974.16;5037841;28;67187;-74
2022/10/16 04:42:34;;;;;;;;;0.00;0.00;;;;;17.83;100.00;100971.44;5038099;28;45435;-74
2022/10/16 04:44:59;;;;;;;;;0.00;0.00;;;;;17.79;100.00;100984.88;5037604;28;67179;-76
2022/10/16 04:47:24;;;;;;;;;2.00;0.00;;;;;17.79;100.00;100981.31;5038329;28;51545;-74
2022/10/16 04:49:50;;;;;;;;;0.00;0.00;;;;;17.76;100.00;100992.91;5037082;28;68166;-74
2022/10/16 04:52:15;;;;;;;;;0.00;0.00;;;;;17.78;100.00;100996.44;5037788;28;66831;-74
2022/10/16 04:54:40;;;;;;;;;0.00;0.00;;;;;17.77;100.00;101007.16;5037568;28;62347;-74
2022/10/16 04:57:06;;;;;;;;;0.00;0.00;;;;;17.76;100.00;101011.63;5037907;28;55415;-74
2022/10/16 04:59:31;;;;;;;;;0.00;0.00;;;;;17.75;100.00;100999.19;5038367;28;45584;-75
2022/10/16 05:01:56;;;;;;;;;0.00;0.00;;;;;17.74;100.00;100997.41;5037986;28;45352;-73
2022/10/16 05:04:22;;;;;;;;;0.00;0.00;;;;;17.75;100.00;101004.50;5037983;28;54072;-74
2022/10/16 05:06:47;;;;;;;;;0.00;0.00;;;;;17.75;100.00;101007.19;5037852;28;49915;-76
2022/10/16 05:09:12;;;;;;;;;0.00;0.00;;;;;17.75;100.00;101006.31;5038443;28;51866;-75
2022/10/16 05:11:38;;;;;;;;;0.00;0.00;;;;;17.75;100.00;101009.84;5037780;28;51826;-75
2022/10/16 05:14:03;;;;;;;;;0.00;0.00;;;;;17.74;100.00;101016.13;5036386;28;60151;-74
2022/10/16 05:16:30;;;;;;;;;0.33;0.00;;;;;17.72;100.00;101015.22;5037582;28;61879;-74
2022/10/16 05:18:55;;;;;;;;;0.00;0.00;;;;;17.71;100.00;101025.91;5037706;28;47474;-74
2022/10/16 05:21:21;;;;;;;;;0.00;0.00;;;;;17.72;100.00;101041.03;5038556;28;45670;-75
2022/10/16 05:26:19;;;;;;;;;0.00;0.00;;;;;17.74;100.00;101049.97;5012251;22;48015;-75
2022/10/16 05:28:44;;;;;;;;;0.33;0.00;;;;;17.77;100.00;101049.88;5036152;28;65483;-75
2022/10/16 05:31:10;;;;;;;;;0.00;0.00;;;;;17.76;100.00;101037.44;5036908;28;59733;-75
2022/10/16 05:33:35;;;;;;;;;0.00;0.00;;;;;17.77;100.00;101040.09;5037355;28;45491;-74
2022/10/16 05:36:02;;;;;;;;;0.00;0.00;;;;;17.77;100.00;101034.75;5038210;28;45216;-75
2022/10/16 05:38:28;;;;;;;;;0.00;0.00;;;;;17.76;100.00;101030.31;5037731;28;47041;-73
2022/10/16 05:40:54;;;;;;;;;0.00;0.00;;;;;17.75;100.00;101030.34;5037195;28;45252;-75
2022/10/16 05:43:19;;;;;;;;;0.00;0.00;;;;;17.74;100.00;101037.47;5052363;28;45451;-74
2022/10/16 05:45:53;;;;;;;;;0.00;0.00;;;;;17.73;100.00;101033.03;5057385;28;45526;-74
2022/10/16 05:48:18;;;;;;;;;0.00;0.00;;;;;17.73;100.00;101032.13;5051757;28;47695;-74
2022/10/16 05:50:44;;;;;;;;;0.00;0.00;;;;;17.72;100.00;101028.59;5036800;28;63816;-74
2022/10/16 05:53:09;;;;;;;;;0.00;0.00;;;;;17.69;100.00;101031.28;5037568;28;45355;-74
2022/10/16 05:55:34;;;;;;;;;0.67;0.00;;;;;17.67;100.00;101033.09;5037203;28;60050;-75
2022/10/16 05:58:00;;;;;;;;;1.00;0.00;;;;;17.66;100.00;101042.00;5035737;28;67510;-74
2022/10/16 06:00:25;;;;;;;;;0.00;0.00;;;;;17.66;100.00;101043.78;5037025;28;64276;-75
2022/10/16 06:02:50;;;;;;;;;0.00;0.00;;;;;17.64;100.00;101053.63;5036459;28;56522;-74
2022/10/16 06:05:16;;;;;;;;;0.00;0.00;;;;;17.63;100.00;101046.50;5037359;28;51002;-74
2022/10/16 06:07:41;;;;;;;;;1.33;0.00;;;;;17.60;100.00;101038.56;5037271;28;47133;-75
2022/10/16 06:10:07;;;;;;;;;3.00;0.00;;;;;17.57;100.00;101042.13;5036432;28;54930;-73
2022/10/16 06:12:32;;;;;;;;;0.00;0.00;;;;;17.55;100.00;101044.84;5030417;28;45587;-74
2022/10/16 06:14:58;;;;;;;;;0.00;0.00;;;;;17.51;100.00;101043.09;5036581;28;60248;-74
2022/10/16 06:17:23;;;;;;;;;0.00;0.00;;;;;17.46;100.00;101044.94;5036253;28;60239;-74
2022/10/16 06:19:48;;;;;;;;;0.67;0.67;;;;;17.43;100.00;101047.69;5035835;28;69358;-76
2022/10/16 06:22:14;;;;;;;;;0.00;0.00;;;;;17.42;100.00;101039.69;5036517;28;55386;-74
2022/10/16 06:24:39;;;;;;;;;0.33;0.00;;;;;17.37;100.00;101050.44;5038346;28;45352;-75
2022/10/16 06:27:04;;;;;;;;;1.00;1.00;;;;;17.35;100.00;101038.88;5036766;28;55590;-75
2022/10/16 06:29:30;;;;;;;;;3.00;0.00;;;;;17.31;100.00;101031.84;5036522;28;51788;-74
2022/10/16 06:31:55;;;;;;;;;0.33;0.33;;;;;17.27;100.00;101044.34;5027829;28;45893;-74
2022/10/16 06:34:20;;;;;;;;;0.00;0.00;;;;;17.22;100.00;101043.50;5036677;28;60541;-74
2022/10/16 06:36:46;;;;;;;;;0.00;0.00;;;;;17.20;100.00;101055.97;5036811;28;46453;-74
2022/10/16 06:39:11;;;;;;;;;0.00;0.00;;;;;17.16;100.00;101069.41;5036395;28;58377;-73
2022/10/16 06:41:37;;;;;;;;;1.00;0.00;;;;;17.14;100.00;101073.84;5036133;28;59648;-75
2022/10/16 06:44:05;;;;;;;;;0.00;0.00;;;;;17.11;100.00;101071.25;5036290;28;45739;-76
2022/10/16 06:46:31;;;;;;;;;0.00;0.00;;;;;17.11;100.00;101074.78;5036707;28;47320;-75
2022/10/16 06:48:56;;;;;;;;;0.00;0.00;;;;;17.10;100.00;101073.03;5035685;28;46097;-73
2022/10/16 06:51:23;;;;;;;;;0.00;0.00;;;;;17.10;100.00;101065.03;5036933;28;45511;-74
2022/10/16 06:53:53;;;;;;;;;1.33;0.00;;;;;17.13;100.00;101067.63;5033180;28;45859;-74
2022/10/16 06:56:21;;;;;;;;;1.33;0.67;;;;;17.12;100.00;101063.22;5032097;28;47502;-75
2022/10/16 06:58:46;;;;;;;;;0.67;0.67;;;;;17.19;100.00;101077.34;5036255;28;45391;-74
2022/10/16 07:01:13;;;;;;;;;0.00;0.00;;;;;17.19;100.00;101074.69;5036410;28;45709;-74
2022/10/16 07:03:40;;;;;;;;;0.00;0.00;;;;;17.25;100.00;101086.16;5036395;28;45502;-75
2022/10/16 07:06:07;;;;;;;;;1.33;1.00;;;;;17.27;100.00;101084.38;5035387;28;46759;-75
2022/10/16 07:08:33;;;;;;;;;0.00;0.00;;;;;17.30;100.00;101086.09;5036525;28;45360;-74
2022/10/16 07:11:07;;;;;;;;;0.00;0.00;;;;;17.34;100.00;101092.28;5036393;28;45285;-75
2022/10/16 07:13:36;;;;;;;;;0.00;0.00;;;;;17.37;100.00;101101.16;5036648;28;45401;-73
2022/10/16 07:16:08;;;;;;;;;0.00;0.00;;;;;17.35;100.00;101102.94;5035993;28;47639;-76
2022/10/16 07:18:34;;;;;;;;;0.00;0.00;;;;;17.41;100.00;101115.31;5032045;28;45511;-75
2022/10/16 07:21:20;;;;;;;;;1.00;0.00;;;;;17.42;100.00;101117.13;5034298;28;45333;-75
2022/10/16 07:23:46;;;;;;;;;0.00;0.00;;;;;17.45;100.00;101106.38;5030167;28;45322;-74
2022/10/16 07:26:11;;;;;;;;;1.00;1.00;;;;;17.47;100.00;101108.16;5021120;28;47387;-73
2022/10/16 07:28:37;;;;;;;;;1.00;1.00;;;;;17.49;100.00;101103.66;5035209;28;45292;-75
2022/10/16 07:31:05;;;;;;;;;0.00;0.00;;;;;17.56;100.00;101120.47;5032231;28;45658;-74
2022/10/16 07:33:31;;;;;;;;;2.00;0.00;;;;;17.63;100.00;101121.25;5037251;28;45549;-73
2022/10/16 07:35:57;;;;;;;;;0.00;0.00;;;;;17.69;100.00;101119.41;5035600;28;46422;-73
2022/10/16 07:38:23;;;;;;;;;0.33;0.33;;;;;17.76;100.00;101131.81;5036180;28;45443;-74
2022/10/16 07:40:56;;;;;;;;;0.00;0.00;;;;;17.83;100.00;101134.41;5036041;28;45506;-75
2022/10/16 07:43:21;;;;;;;;;1.33;1.00;;;;;17.84;100.00;101130.81;5029775;28;45508;-75
2022/10/16 07:45:50;;;;;;;;;0.00;0.00;;;;;17.86;100.00;101135.25;5034065;28;66975;-74
2022/10/16 07:48:17;;;;;;;;;1.00;1.00;;;;;17.88;100.00;101132.53;5035397;28;45573;-74
2022/10/16 07:50:43;;;;;;;;;1.00;1.00;;;;;17.91;100.00;101135.19;5035364;28;45430;-74
2022/10/16 07:53:08;;;;;;;;;0.67;0.67;;;;;17.99;100.00;101134.16;5035319;28;45718;-75
2022/10/16 07:55:34;;;;;;;;;0.00;0.00;;;;;18.04;100.00;101134.97;5034806;28;46078;-74
2022/10/16 07:57:59;;;;;;;;;0.67;0.67;;;;;18.07;100.00;101136.72;5034256;28;68498;-75
2022/10/16 08:00:24;;;;;;;;;0.00;0.00;;;;;18.13;100.00;101143.75;5035681;28;61915;-75
2022/10/16 08:02:50;;;;;;;;;0.00;0.00;;;;;18.19;100.00;101151.69;5038636;28;45572;-75
2022/10/16 08:05:15;;;;;;;;;0.00;0.00;;;;;18.24;100.00;101148.03;5042391;28;62640;-76
2022/10/16 08:07:41;;;;;;;;;0.00;0.00;;;;;18.30;100.00;101155.06;5042735;28;45486;-75
2022/10/16 08:10:06;;;;;;;;;2.00;0.00;;;;;18.37;100.00;101167.41;5037642;28;64563;-75
2022/10/16 08:12:32;;;;;;;;;0.00;0.00;;;;;18.40;100.00;101163.84;5038080;28;45653;-73
2022/10/16 08:14:57;;;;;;;;;0.00;0.00;;;;;18.46;100.00;101179.78;5042977;28;70396;-74
2022/10/16 08:17:22;;;;;;;;;2.00;0.00;;;;;18.50;100.00;101185.06;5037756;28;59629;-73
2022/10/16 08:19:48;;;;;;;;;3.00;1.00;;;;;18.53;100.00;101168.94;5038627;28;45331;-73
2022/10/16 08:22:14;;;;;;;;;1.00;1.00;;;;;18.58;100.00;101166.19;5038672;28;45320;-74
2022/10/16 08:24:39;;;;;;;;;0.00;0.00;;;;;18.60;100.00;101151.03;5035231;28;46599;-73
2022/10/16 08:27:05;;;;;;;;;0.00;0.00;;;;;18.60;100.00;101143.00;5037114;28;45272;-74
2022/10/16 08:29:31;;;;;;;;;0.00;0.00;;;;;18.65;100.00;101153.63;5038435;28;45451;-75
2022/10/16 08:31:56;;;;;;;;;0.00;0.00;;;;;18.66;100.00;101156.25;5037643;28;45520;-75
2022/10/16 08:34:21;;;;;;;;;0.00;0.00;;;;;18.65;100.00;101167.00;5036763;28;64256;-74
2022/10/16 08:36:47;;;;;;;;;1.67;0.00;;;;;18.65;100.00;101181.25;5029010;28;61453;-74
2022/10/16 08:39:12;;;;;;;;;1.67;0.00;;;;;18.65;100.00;101185.72;5018814;28;45502;-75
2022/10/16 08:42:02;;;;;;;;;0.00;0.00;;;;;18.66;100.00;101174.97;5032649;28;57589;-75
2022/10/16 08:44:42;;;;;;;;;3.00;0.00;;;;;18.67;100.00;101179.41;5035531;28;46384;-75
2022/10/16 08:47:23;;;;;;;;;0.00;0.00;;;;;18.68;100.00;101175.88;5035947;28;46829;-75
2022/10/16 08:49:58;;;;;;;;;2.33;0.00;;;;;18.70;100.00;101168.72;5035465;28;45444;-74
2022/10/16 08:52:26;;;;;;;;;0.67;0.33;;;;;18.71;100.00;101166.91;5019773;28;45337;-73
2022/10/16 08:54:54;;;;;;;;;0.33;0.00;;;;;18.74;100.00;101175.75;5018766;28;46845;-74
2022/10/16 08:57:21;;;;;;;;;1.00;1.00;;;;;18.80;100.00;101180.13;5018891;28;45395;-74
2022/10/16 08:59:47;;;;;;;;;1.00;1.00;;;;;18.84;100.00;101179.16;5037965;28;45402;-74
2022/10/16 09:02:32;;;;;;;;;1.33;0.00;;;;;18.85;100.00;101188.94;5034828;28;45633;-75
2022/10/16 09:05:19;;;;;;;;;0.00;0.00;;;;;18.86;100.00;101180.03;5035461;28;47084;-74
2022/10/16 09:07:50;;;;;;;;;0.33;0.33;;;;;18.89;100.00;101195.13;5035514;28;45537;-74
2022/10/16 09:10:34;;;;;;;;;0.00;0.00;;;;;18.98;100.00;101195.00;5037974;28;45126;-74
2022/10/16 09:13:18;;;;;;;;;0.33;0.33;;;;;19.10;100.00;101189.41;5037066;28;45451;-74
2022/10/16 09:15:49;;;;;;;;;3.00;1.00;;;;;19.19;100.00;101183.88;5031566;28;45431;-77
2022/10/16 09:18:21;;;;;;;;;0.33;0.33;;;;;19.21;100.00;101190.09;5036086;28;45514;-76
2022/10/16 09:21:08;;;;;;;;;1.67;1.67;;;;;19.16;100.00;101172.34;5031928;28;45435;-76
2022/10/16 09:23:37;;;;;;;;;1.67;1.67;;;;;19.09;100.00;101172.47;5033285;28;46124;-75
2022/10/16 09:26:04;;;;;;;;;0.67;0.67;;;;;19.09;100.00;101177.81;5034930;28;47309;-76
2022/10/16 09:28:30;;;;;;;;;0.67;0.67;;;;;19.15;100.00;101181.28;5028754;28;45456;-75
2022/10/16 09:30:55;;;;;;;;;0.33;0.00;;;;;19.23;100.00;101187.38;5016936;28;45479;-74
2022/10/16 09:33:24;;;;;;;;;0.33;0.33;;;;;19.30;100.00;101191.72;5036349;28;45867;-75
2022/10/16 09:35:51;;;;;;;;;2.33;0.33;;;;;19.36;100.00;101199.63;5017710;28;47374;-76
2022/10/16 09:38:28;;;;;;;;;0.67;0.67;;;;;19.38;100.00;101193.31;5018834;28;45379;-77
2022/10/16 09:40:54;;;;;;;;;0.33;0.33;;;;;19.37;100.00;101196.03;5037270;28;45502;-78
2022/10/16 09:43:27;;;;;;;;;0.33;0.33;;;;;19.32;100.00;101182.72;5019961;28;45328;-77
2022/10/16 09:45:58;;;;;;;;;1.00;0.33;;;;;19.32;100.00;101198.78;5020245;28;46569;-76
2022/10/16 09:48:26;;;;;;;;;0.00;0.00;;;;;19.33;100.00;101199.66;5019482;28;45348;-78
2022/10/16 09:51:00;;;;;;;;;1.33;0.67;;;;;19.35;100.00;101201.41;5024731;28;45346;-77
2022/10/16 09:53:46;;;;;;;;;0.67;0.67;;;;;19.38;100.00;101195.97;5037849;28;45510;-77
2022/10/16 09:56:21;;;;;;;;;2.33;1.00;;;;;19.42;100.00;101194.13;5035156;28;46709;-75
2022/10/16 09:58:52;;;;;;;;;1.33;1.33;;;;;19.48;100.00;101185.97;5037089;28;45356;-74
2022/10/16 10:01:18;;;;;;;;;1.00;1.00;;;;;19.51;100.00;101191.28;5037032;28;45557;-75
2022/10/16 10:03:45;;;;;;;;;1.67;1.67;;;;;19.58;100.00;101184.00;5018383;28;52531;-75
2022/10/16 10:06:22;;;;;;;;;0.67;0.67;;;;;19.61;100.00;101175.94;5036053;28;46622;-73
2022/10/16 10:09:14;;;;;;;;;2.33;2.33;;;;;19.60;100.00;101172.41;5018199;28;45505;-74
2022/10/16 10:12:04;;;;;;;;;2.33;0.67;;;;;19.58;100.00;101179.53;5018776;28;45313;-75
2022/10/16 10:14:36;;;;;;;;;2.00;2.00;;;;;19.59;100.00;101175.06;5025275;28;45561;-75
2022/10/16 10:17:04;;;;;;;;;3.67;2.33;;;;;19.59;100.00;101170.59;5033487;28;47572;-75
2022/10/16 10:19:29;;;;;;;;;2.00;2.00;;;;;19.61;100.00;101166.13;5036238;28;45988;-74
2022/10/16 10:21:55;;;;;;;;;3.00;1.67;;;;;19.66;100.00;101168.69;5018584;28;59669;-75
2022/10/16 10:24:20;;;;;;;;;2.00;2.00;;;;;19.75;100.00;101164.91;5016360;28;58636;-72
2022/10/16 10:26:55;;;;;;;;;3.00;1.67;;;;;19.87;100.00;101170.91;5012651;28;46394;-74
2022/10/16 10:29:34;;;;;;;;;2.33;0.67;;;;;19.96;100.00;101172.50;5014252;28;45507;-71
2022/10/16 10:32:26;;;;;;;;;2.67;2.00;;;;;20.10;100.00;101162.34;4994722;28;45476;-72
2022/10/16 10:34:54;;;;;;;;;3.67;1.67;;;;;20.20;100.00;101164.81;5010492;28;45424;-71
2022/10/16 10:37:27;;;;;;;;;2.00;2.00;;;;;20.28;100.00;101168.19;5009603;28;46340;-72
2022/10/16 10:40:10;;;;;;;;;4.33;2.00;;;;;20.29;100.00;101167.25;4997990;28;45539;-71
2022/10/16 10:43:05;;;;;;;;;2.67;2.67;;;;;20.35;100.00;101167.16;5016263;28;45357;-73
2022/10/16 10:45:37;;;;;;;;;2.00;2.00;;;;;20.38;100.00;101159.88;4996711;28;45364;-72
2022/10/16 10:48:20;;;;;;;;;3.00;3.00;;;;;20.43;100.00;101157.09;4998150;28;46387;-71
2022/10/16 10:50:49;;;;;;;;;2.00;2.00;;;;;20.47;100.00;101161.50;5011941;28;45508;-71
2022/10/16 10:53:36;;;;;;;;;1.33;1.33;;;;;20.49;100.00;101151.59;5010538;28;45511;-73
2022/10/16 10:56:17;;;;;;;;;2.00;2.00;;;;;20.55;100.00;101145.22;4997997;28;45393;-72
2022/10/16 10:58:57;;;;;;;;;1.67;1.67;;;;;20.62;100.00;101138.78;5003677;28;45763;-72
2022/10/16 11:01:26;;;;;;;;;2.00;2.00;;;;;20.73;100.00;101136.69;4998037;28;46682;-72
2022/10/16 11:04:14;;;;;;;;;2.00;2.00;;;;;20.86;100.00;101145.31;5014345;28;45455;-71
2022/10/16 11:06:46;;;;;;;;;1.00;1.00;;;;;20.98;100.00;101139.59;5011892;28;46557;-71
2022/10/16 11:09:48;;;;;;;;;1.00;1.00;;;;;21.10;100.00;101124.97;5014199;28;45736;-71
2022/10/16 11:12:27;;;;;;;;;2.67;2.67;;;;;21.19;100.00;101132.75;4934812;28;45307;-71
2022/10/16 11:15:01;;;;;;;;;1.00;1.00;;;;;21.28;100.00;101132.50;5002165;28;45470;-70
2022/10/16 11:17:32;;;;;;;;;1.00;1.00;;;;;21.35;100.00;101131.44;4996802;28;45506;-70
2022/10/16 11:20:14;;;;;;;;;1.00;1.00;;;;;21.42;100.00;101130.34;5015339;28;45530;-70
2022/10/16 11:22:48;;;;;;;;;2.00;2.00;;;;;21.41;100.00;101128.59;4998561;28;45335;-72
2022/10/16 11:25:36;;;;;;;;;1.00;1.00;;;;;21.38;100.00;101135.84;5021954;28;45300;-70
2022/10/16 11:28:10;;;;;;;;;0.33;0.33;;;;;21.37;100.00;101143.03;5035369;28;45681;-70